Time;durP1;ratioP1;P1;durP2;ratioP2;P2;SDS_P1;SDS_P2;PMS_P1;PMS_P2;Temp;Humidity;BMP_temperature;BMP_pressure;BME280_temperature;BME280_humidity;BME280_pressure;Samples;Min_cycle;Max_cycle;Signal;HPM_P1;HPM_P2
2022/06/22 00:00:15;;;;;;;;;;;9.70;99.90;;;;;;5003982;28;19920;-78
2022/06/22 00:02:43;;;;;;;;;;;9.70;99.90;;;;;;5003101;28;19975;-74
2022/06/22 00:05:23;;;;;;;;;;;9.80;99.90;;;;;;5004469;28;20387;-71
2022/06/22 00:07:52;;;;;;;;;;;9.90;99.90;;;;;;5002493;28;19921;-71
2022/06/22 00:10:37;;;;;;;;;;;9.90;99.90;;;;;;4996599;28;19913;-77
2022/06/22 00:13:04;;;;;;;;;;;10.00;99.90;;;;;;5010341;28;20274;-71
2022/06/22 00:15:36;;;;;;;;;;;10.10;99.90;;;;;;5010353;28;20247;-77
2022/06/22 00:18:18;;;;;;;;;;;10.20;99.90;;;;;;5010144;28;19992;-71
2022/06/22 00:20:48;;;;;;;;;;;10.20;99.90;;;;;;5004945;28;20262;-75
2022/06/22 00:23:15;;;;;;;;;;;10.20;99.90;;;;;;5004035;28;19963;-76
2022/06/22 00:25:42;;;;;;;;;;;10.20;99.90;;;;;;5002794;28;19914;-72
2022/06/22 00:28:24;;;;;;;;;;;10.20;99.90;;;;;;5004389;28;20359;-72
2022/06/22 00:30:57;;;;;;;;;;;10.20;99.90;;;;;;5003035;28;19906;-71
2022/06/22 00:33:24;;;;;;;;;;;10.30;99.90;;;;;;5002702;28;20248;-78
2022/06/22 00:35:55;;;;;;;;;;;10.30;99.90;;;;;;5003829;28;19909;-71
2022/06/22 00:38:33;;;;;;;;;;;10.30;99.90;;;;;;5004713;28;19909;-71
2022/06/22 00:41:13;;;;;;;;;;;10.30;99.90;;;;;;5004642;28;19905;-77
2022/06/22 00:43:39;;;;;;;;;;;10.30;99.90;;;;;;5004543;28;20248;-77
2022/06/22 00:46:18;;;;;;;;;;;10.40;99.90;;;;;;5002181;28;19933;-72
2022/06/22 00:48:47;;;;;;;;;;;10.50;99.90;;;;;;5005021;28;20005;-72
2022/06/22 00:51:33;;;;;;;;;;;10.60;99.90;;;;;;5003553;28;19912;-78
2022/06/22 00:54:05;;;;;;;;;;;10.60;99.90;;;;;;5000238;28;19944;-77
2022/06/22 00:56:38;;;;;;;;;;;10.60;99.90;;;;;;5003127;28;20373;-78
2022/06/22 00:59:27;;;;;;;;;;;10.70;99.90;;;;;;5002321;28;19914;-75
2022/06/22 01:01:54;;;;;;;;;;;10.70;99.90;;;;;;4999361;28;19910;-76
2022/06/22 01:04:23;;;;;;;;;;;10.80;99.90;;;;;;5004338;28;19906;-72
2022/06/22 01:06:53;;;;;;;;;;;10.70;99.90;;;;;;5002532;28;19921;-71
2022/06/22 01:09:36;;;;;;;;;;;10.80;99.90;;;;;;5002083;28;20382;-77
2022/06/22 01:12:25;;;;;;;;;;;11.00;99.90;;;;;;5001343;28;19917;-72
2022/06/22 01:14:58;;;;;;;;;;;11.10;99.90;;;;;;5001401;28;19906;-72
2022/06/22 01:17:28;;;;;;;;;;;11.20;99.90;;;;;;5006213;28;19913;-71
2022/06/22 01:19:55;;;;;;;;;;;11.20;99.90;;;;;;4998909;28;19976;-72
2022/06/22 01:22:40;;;;;;;;;;;11.20;99.90;;;;;;5003917;28;19909;-72
2022/06/22 01:25:18;;;;;;;;;;;11.30;99.90;;;;;;5001428;28;19951;-75
2022/06/22 01:27:45;;;;;;;;;;;11.30;99.90;;;;;;5003409;28;20366;-79
2022/06/22 01:30:24;;;;;;;;;;;11.40;99.90;;;;;;5000677;28;19985;-72
2022/06/22 01:32:51;;;;;;;;;;;11.50;99.90;;;;;;5006040;28;20003;-76
2022/06/22 01:35:23;;;;;;;;;;;11.60;99.90;;;;;;4996078;28;20329;-78
2022/06/22 01:37:50;;;;;;;;;;;11.70;99.90;;;;;;5001256;28;20355;-72
2022/06/22 01:40:21;;;;;;;;;;;11.70;99.90;;;;;;5005475;28;19921;-78
2022/06/22 01:42:58;;;;;;;;;;;11.70;99.90;;;;;;5014592;28;19906;-76
2022/06/22 01:45:35;;;;;;;;;;;11.70;99.90;;;;;;5002320;28;19956;-71
2022/06/22 01:48:15;;;;;;;;;;;11.70;99.90;;;;;;5015930;28;19913;-79
2022/06/22 01:50:42;;;;;;;;;;;11.90;99.90;;;;;;4999567;28;19905;-78
2022/06/22 01:53:25;;;;;;;;;;;11.90;99.90;;;;;;5011789;28;20003;-72
2022/06/22 01:55:56;;;;;;;;;;;12.00;99.90;;;;;;5005872;28;19909;-71
2022/06/22 01:58:41;;;;;;;;;;;12.10;99.90;;;;;;5015678;28;19913;-79
2022/06/22 02:01:14;;;;;;;;;;;12.20;99.90;;;;;;4999508;28;19913;-78
2022/06/22 02:03:44;;;;;;;;;;;12.20;99.90;;;;;;5007482;28;19909;-78
2022/06/22 02:09:08;;;;;;;;;;;12.30;99.90;;;;;;5012644;28;19916;-77
2022/06/22 02:11:36;;;;;;;;;;;12.30;99.90;;;;;;5003220;28;19917;-77
2022/06/22 02:14:09;;;;;;;;;;;12.40;99.90;;;;;;5015316;28;19921;-74
2022/06/22 02:16:44;;;;;;;;;;;12.40;99.90;;;;;;5007992;28;19917;-71
2022/06/22 02:19:16;;;;;;;;;;;12.50;99.90;;;;;;5005066;28;19917;-79
2022/06/22 02:21:42;;;;;;;;;;;12.50;99.90;;;;;;5005602;28;19932;-71
2022/06/22 02:24:27;;;;;;;;;;;12.50;99.90;;;;;;5005850;28;20274;-71
2022/06/22 02:26:56;;;;;;;;;;;12.50;99.90;;;;;;5005793;28;19952;-78
2022/06/22 02:29:28;;;;;;;;;;;12.50;99.90;;;;;;5005838;28;19905;-75
2022/06/22 02:31:57;;;;;;;;;;;12.50;99.90;;;;;;5007513;28;19910;-75
2022/06/22 02:34:24;;;;;;;;;;;12.60;99.90;;;;;;5005934;28;19905;-75
2022/06/22 02:36:53;;;;;;;;;;;12.70;99.90;;;;;;5006828;28;19909;-72
2022/06/22 02:39:20;;;;;;;;;;;12.70;99.90;;;;;;5004149;28;20003;-72
2022/06/22 02:44:37;;;;;;;;;;;12.80;99.90;;;;;;5007290;28;20410;-71
2022/06/22 02:47:22;;;;;;;;;;;12.70;99.90;;;;;;5004710;28;19906;-79
2022/06/22 02:49:50;;;;;;;;;;;12.60;99.90;;;;;;5012132;28;20484;-79
2022/06/22 02:52:18;;;;;;;;;;;12.60;99.90;;;;;;5001240;28;19910;-75
2022/06/22 02:54:57;;;;;;;;;;;12.60;99.90;;;;;;4996965;28;19913;-74
2022/06/22 02:57:42;;;;;;;;;;;12.60;99.90;;;;;;5004082;28;19905;-79
2022/06/22 03:00:09;;;;;;;;;;;12.60;99.90;;;;;;5002858;28;20493;-78
2022/06/22 03:02:36;;;;;;;;;;;12.60;99.90;;;;;;5013324;28;19937;-71
2022/06/22 03:05:05;;;;;;;;;;;12.70;99.90;;;;;;5014732;28;19913;-72
2022/06/22 03:07:32;;;;;;;;;;;12.70;99.90;;;;;;5014501;28;19924;-71
2022/06/22 03:10:02;;;;;;;;;;;12.70;99.90;;;;;;5014648;28;19905;-76
2022/06/22 03:12:28;;;;;;;;;;;12.90;99.90;;;;;;5008768;28;19992;-73
2022/06/22 03:15:14;;;;;;;;;;;13.00;99.90;;;;;;5002663;28;19917;-71
2022/06/22 03:17:41;;;;;;;;;;;13.20;99.90;;;;;;5005291;28;20270;-77
2022/06/22 03:20:15;;;;;;;;;;;13.30;99.90;;;;;;5005633;28;19924;-77
2022/06/22 03:22:43;;;;;;;;;;;13.40;99.90;;;;;;5017146;28;19997;-74
2022/06/22 03:25:30;;;;;;;;;;;13.40;99.90;;;;;;5007825;28;19912;-72
2022/06/22 03:28:04;;;;;;;;;;;13.60;99.90;;;;;;5003083;28;20021;-76
2022/06/22 03:30:37;;;;;;;;;;;13.70;99.90;;;;;;5003223;28;19905;-77
2022/06/22 03:33:09;;;;;;;;;;;13.60;99.90;;;;;;5009342;28;19913;-75
2022/06/22 03:35:42;;;;;;;;;;;13.60;99.90;;;;;;4996947;28;19949;-75
2022/06/22 03:38:20;;;;;;;;;;;13.50;99.90;;;;;;5003942;28;19909;-74
2022/06/22 03:40:46;;;;;;;;;;;13.50;99.90;;;;;;5004950;28;19913;-78
2022/06/22 03:43:22;;;;;;;;;;;13.40;99.90;;;;;;5011356;28;20009;-76
2022/06/22 03:45:52;;;;;;;;;;;13.40;99.90;;;;;;4993524;28;19921;-71
2022/06/22 03:48:29;;;;;;;;;;;13.40;99.90;;;;;;4992445;28;20319;-71
2022/06/22 03:51:07;;;;;;;;;;;13.50;99.90;;;;;;5000491;28;20398;-71
2022/06/22 03:53:38;;;;;;;;;;;13.60;99.90;;;;;;5004745;28;20012;-71
2022/06/22 03:56:08;;;;;;;;;;;13.60;99.90;;;;;;5004020;28;20587;-71
2022/06/22 03:58:35;;;;;;;;;;;13.70;99.90;;;;;;5003593;28;19914;-71
2022/06/22 04:01:03;;;;;;;;;;;13.60;99.90;;;;;;5003177;28;19905;-72
2022/06/22 04:03:29;;;;;;;;;;;13.60;99.90;;;;;;5001470;28;19906;-71
2022/06/22 04:05:57;;;;;;;;;;;13.60;99.90;;;;;;5002527;28;19921;-71
2022/06/22 04:08:24;;;;;;;;;;;13.60;99.90;;;;;;5006601;28;20430;-71
2022/06/22 04:10:58;;;;;;;;;;;13.50;99.90;;;;;;5003278;28;19952;-74
2022/06/22 04:13:29;;;;;;;;;;;13.50;99.90;;;;;;5001626;28;19945;-76
2022/06/22 04:16:00;;;;;;;;;;;13.40;99.90;;;;;;5005382;28;20327;-71
2022/06/22 04:18:29;;;;;;;;;;;13.40;99.90;;;;;;5005156;28;20273;-71
2022/06/22 04:20:59;;;;;;;;;;;13.40;99.90;;;;;;5004135;28;19914;-71
2022/06/22 04:23:29;;;;;;;;;;;13.30;99.90;;;;;;5001510;28;20402;-71
2022/06/22 04:25:58;;;;;;;;;;;13.30;99.90;;;;;;5003928;28;20278;-71
2022/06/22 04:28:26;;;;;;;;;;;13.20;99.90;;;;;;5003175;28;19909;-76
2022/06/22 04:30:54;;;;;;;;;;;13.20;99.90;;;;;;5004402;28;19910;-76
2022/06/22 04:33:20;;;;;;;;;;;13.10;99.90;;;;;;5001604;28;19916;-72
2022/06/22 04:35:54;;;;;;;;;;;13.10;99.90;;;;;;5002949;28;19910;-72
2022/06/22 04:38:21;;;;;;;;;;;13.00;99.90;;;;;;5003301;28;19960;-71
2022/06/22 04:40:47;;;;;;;;;;;13.00;99.90;;;;;;5003268;28;19906;-77
2022/06/22 04:43:14;;;;;;;;;;;13.00;99.90;;;;;;5002418;28;20294;-72
2022/06/22 04:45:42;;;;;;;;;;;13.10;99.90;;;;;;5001914;28;19916;-73
2022/06/22 04:48:11;;;;;;;;;;;13.10;99.90;;;;;;5004764;28;19905;-76
2022/06/22 04:50:40;;;;;;;;;;;13.10;99.90;;;;;;5001288;28;19996;-77
2022/06/22 04:53:09;;;;;;;;;;;13.10;99.90;;;;;;5002899;28;20383;-72
2022/06/22 04:55:38;;;;;;;;;;;13.00;99.90;;;;;;5001804;28;19914;-71
2022/06/22 04:58:09;;;;;;;;;;;13.00;99.90;;;;;;5004948;28;19917;-71
2022/06/22 05:00:36;;;;;;;;;;;13.00;99.90;;;;;;5001893;28;19910;-71
2022/06/22 05:03:07;;;;;;;;;;;12.90;99.90;;;;;;5004214;28;19906;-77
2022/06/22 05:05:34;;;;;;;;;;;13.00;99.90;;;;;;5003354;28;20267;-72
2022/06/22 05:08:05;;;;;;;;;;;12.90;99.90;;;;;;5002978;28;19909;-77
2022/06/22 05:10:31;;;;;;;;;;;12.90;99.90;;;;;;5003141;28;20347;-77
2022/06/22 05:13:01;;;;;;;;;;;12.90;99.90;;;;;;5004520;28;19960;-78
2022/06/22 05:15:39;;;;;;;;;;;13.00;99.90;;;;;;5002765;28;19905;-77
2022/06/22 05:18:10;;;;;;;;;;;13.00;99.90;;;;;;5004839;28;19964;-71
2022/06/22 05:20:46;;;;;;;;;;;13.10;99.90;;;;;;5016035;28;20004;-75
2022/06/22 05:23:13;;;;;;;;;;;13.10;99.90;;;;;;5005474;28;20393;-71
2022/06/22 05:25:42;;;;;;;;;;;13.20;99.90;;;;;;5011132;28;19909;-74
2022/06/22 05:28:12;;;;;;;;;;;13.10;99.90;;;;;;5017467;28;20036;-77
2022/06/22 05:30:54;;;;;;;;;;;13.10;99.90;;;;;;5017535;28;19905;-70
2022/06/22 05:33:23;;;;;;;;;;;13.10;99.90;;;;;;5017417;28;19909;-73
2022/06/22 05:35:54;;;;;;;;;;;13.10;99.90;;;;;;5016286;28;20321;-71
2022/06/22 05:38:22;;;;;;;;;;;13.10;99.90;;;;;;4999774;28;19910;-77
2022/06/22 05:40:49;;;;;;;;;;;13.10;99.90;;;;;;5000312;28;20441;-71
2022/06/22 05:43:17;;;;;;;;;;;13.10;99.90;;;;;;5005381;28;19910;-71
2022/06/22 05:45:49;;;;;;;;;;;13.10;99.90;;;;;;5015951;28;19909;-72
2022/06/22 05:48:23;;;;;;;;;;;13.20;99.90;;;;;;5003892;28;20362;-71
2022/06/22 05:50:59;;;;;;;;;;;13.20;99.90;;;;;;5014998;28;19916;-76
2022/06/22 05:53:44;;;;;;;;;;;13.20;99.90;;;;;;5014285;28;19909;-71
2022/06/22 05:56:20;;;;;;;;;;;13.10;99.90;;;;;;5013985;28;19999;-70
2022/06/22 05:59:07;;;;;;;;;;;13.00;99.90;;;;;;5012245;28;19924;-75
2022/06/22 06:01:58;;;;;;;;;;;13.00;99.90;;;;;;5010330;28;20330;-72
2022/06/22 06:04:30;;;;;;;;;;;12.90;99.90;;;;;;5006742;28;20240;-72
2022/06/22 06:07:00;;;;;;;;;;;12.90;99.90;;;;;;5002963;28;20423;-77
2022/06/22 06:09:27;;;;;;;;;;;12.80;99.90;;;;;;5016494;28;19906;-71
2022/06/22 06:12:01;;;;;;;;;;;12.80;99.90;;;;;;5011400;28;19906;-71
2022/06/22 06:14:31;;;;;;;;;;;12.80;99.90;;;;;;5012536;28;19916;-71
2022/06/22 06:17:02;;;;;;;;;;;12.80;99.90;;;;;;5011667;28;20303;-71
2022/06/22 06:19:30;;;;;;;;;;;12.80;99.90;;;;;;5010699;28;19920;-72
2022/06/22 06:21:58;;;;;;;;;;;12.70;99.90;;;;;;5009552;28;19919;-70
2022/06/22 06:24:31;;;;;;;;;;;12.70;99.90;;;;;;5015523;28;20440;-71
2022/06/22 06:29:42;;;;;;;;;;;12.60;99.90;;;;;;5010885;28;20384;-70
2022/06/22 06:32:23;;;;;;;;;;;12.60;99.90;;;;;;5011737;28;19940;-71
2022/06/22 06:35:03;;;;;;;;;;;12.50;99.90;;;;;;5013714;28;19905;-76
2022/06/22 06:37:44;;;;;;;;;;;12.50;99.90;;;;;;5011312;28;20011;-71
2022/06/22 06:40:15;;;;;;;;;;;12.50;99.90;;;;;;5014072;28;19914;-71
2022/06/22 06:42:49;;;;;;;;;;;12.50;99.90;;;;;;5014224;28;20059;-72
2022/06/22 06:45:19;;;;;;;;;;;12.40;99.90;;;;;;5015261;28;19928;-76
2022/06/22 06:47:49;;;;;;;;;;;12.40;99.90;;;;;;5010377;28;19905;-71
2022/06/22 06:50:16;;;;;;;;;;;12.40;99.90;;;;;;5013337;28;19906;-71
2022/06/22 06:53:01;;;;;;;;;;;12.40;99.90;;;;;;5011699;28;20385;-71
2022/06/22 06:55:34;;;;;;;;;;;12.30;99.90;;;;;;5013900;28;19912;-71
2022/06/22 06:58:00;;;;;;;;;;;12.30;99.90;;;;;;5010472;28;20369;-78
2022/06/22 07:00:28;;;;;;;;;;;12.20;99.90;;;;;;5009610;28;19953;-70
2022/06/22 07:02:55;;;;;;;;;;;12.20;99.90;;;;;;5012622;28;20290;-69
2022/06/22 07:05:24;;;;;;;;;;;12.10;99.90;;;;;;5010962;28;20000;-76
2022/06/22 07:08:04;;;;;;;;;;;12.10;99.90;;;;;;5013583;28;20313;-75
2022/06/22 07:10:34;;;;;;;;;;;12.00;99.90;;;;;;5012909;28;19987;-75
2022/06/22 07:13:06;;;;;;;;;;;12.00;99.90;;;;;;5014547;28;19928;-75
2022/06/22 07:15:35;;;;;;;;;;;11.90;99.90;;;;;;5011471;28;20012;-73
2022/06/22 07:18:09;;;;;;;;;;;11.90;99.90;;;;;;5011397;28;19910;-70
2022/06/22 07:20:39;;;;;;;;;;;11.90;99.90;;;;;;5010945;28;19963;-70
2022/06/22 07:23:29;;;;;;;;;;;11.80;99.90;;;;;;5010128;28;19905;-74
2022/06/22 07:26:01;;;;;;;;;;;11.80;99.90;;;;;;5012117;28;19906;-74
2022/06/22 07:28:49;;;;;;;;;;;11.80;99.90;;;;;;5013143;28;19921;-75
2022/06/22 07:31:31;;;;;;;;;;;11.70;99.90;;;;;;5012698;28;20274;-75
2022/06/22 07:33:58;;;;;;;;;;;11.70;99.90;;;;;;5012825;28;19905;-70
2022/06/22 07:36:29;;;;;;;;;;;11.70;99.90;;;;;;5011050;28;19913;-76
2022/06/22 07:39:07;;;;;;;;;;;11.60;99.90;;;;;;5011191;28;20247;-75
2022/06/22 07:41:34;;;;;;;;;;;11.60;99.90;;;;;;5012821;28;19921;-75
2022/06/22 07:44:04;;;;;;;;;;;11.60;99.90;;;;;;5013470;28;20531;-70
2022/06/22 07:46:34;;;;;;;;;;;11.60;99.90;;;;;;5011838;28;20003;-77
2022/06/22 07:49:12;;;;;;;;;;;11.50;99.90;;;;;;5009205;28;20417;-76
2022/06/22 07:51:42;;;;;;;;;;;11.50;99.90;;;;;;5011728;28;19906;-75
2022/06/22 07:54:16;;;;;;;;;;;11.50;99.90;;;;;;5009717;28;19920;-77
2022/06/22 07:57:01;;;;;;;;;;;11.40;99.90;;;;;;5011935;28;19905;-74
2022/06/22 07:59:33;;;;;;;;;;;11.40;99.90;;;;;;5008138;28;19917;-69
2022/06/22 08:02:02;;;;;;;;;;;11.40;99.90;;;;;;5010820;28;20004;-76
2022/06/22 08:04:32;;;;;;;;;;;11.40;99.90;;;;;;5009587;28;20381;-75
2022/06/22 08:07:10;;;;;;;;;;;11.40;99.90;;;;;;5011618;28;20355;-72
2022/06/22 08:09:55;;;;;;;;;;;11.40;99.90;;;;;;5005253;28;19960;-78
2022/06/22 08:12:40;;;;;;;;;;;11.40;99.90;;;;;;5006513;28;20003;-78
2022/06/22 08:15:08;;;;;;;;;;;11.40;99.90;;;;;;5001624;28;20363;-73
2022/06/22 08:17:35;;;;;;;;;;;11.30;99.90;;;;;;5007699;28;19925;-74
2022/06/22 08:20:03;;;;;;;;;;;11.30;99.90;;;;;;5006389;28;19960;-72
2022/06/22 08:22:30;;;;;;;;;;;11.20;99.90;;;;;;5011762;28;19913;-78
2022/06/22 08:24:57;;;;;;;;;;;11.20;99.90;;;;;;5010737;28;19911;-76
2022/06/22 08:27:25;;;;;;;;;;;11.20;99.90;;;;;;4997505;28;19905;-76
2022/06/22 08:29:53;;;;;;;;;;;11.10;99.90;;;;;;5004856;28;19952;-76
2022/06/22 08:32:23;;;;;;;;;;;11.00;99.90;;;;;;5012601;28;20000;-77
2022/06/22 08:34:54;;;;;;;;;;;11.00;99.90;;;;;;5013307;28;20275;-70
2022/06/22 08:37:27;;;;;;;;;;;11.00;99.90;;;;;;5008776;28;19959;-71
2022/06/22 08:39:57;;;;;;;;;;;10.90;99.90;;;;;;5009838;28;19921;-75
2022/06/22 08:42:28;;;;;;;;;;;10.90;99.90;;;;;;5010021;28;19917;-71
2022/06/22 08:44:58;;;;;;;;;;;10.90;99.90;;;;;;5012282;28;19917;-71
2022/06/22 08:47:24;;;;;;;;;;;10.90;99.90;;;;;;5010739;28;19905;-77
2022/06/22 08:50:06;;;;;;;;;;;10.90;99.90;;;;;;5012180;28;19952;-77
2022/06/22 08:52:33;;;;;;;;;;;10.80;99.90;;;;;;5010007;28;19910;-74
2022/06/22 08:55:24;;;;;;;;;;;10.70;99.90;;;;;;5012264;28;19905;-75
2022/06/22 08:57:51;;;;;;;;;;;10.70;99.90;;;;;;5012413;28;19905;-76
2022/06/22 09:00:25;;;;;;;;;;;10.60;99.90;;;;;;5012075;28;19913;-72
2022/06/22 09:02:52;;;;;;;;;;;10.60;99.90;;;;;;5011937;28;20270;-78
2022/06/22 09:05:45;;;;;;;;;;;10.60;99.90;;;;;;5012105;28;19905;-74
2022/06/22 09:08:11;;;;;;;;;;;10.60;99.90;;;;;;5010388;28;20374;-72
2022/06/22 09:10:38;;;;;;;;;;;10.60;99.90;;;;;;5011184;28;19928;-71
2022/06/22 09:13:23;;;;;;;;;;;10.50;99.90;;;;;;5010618;28;19953;-73
2022/06/22 09:16:07;;;;;;;;;;;10.50;99.90;;;;;;5011939;28;19905;-76
2022/06/22 09:18:34;;;;;;;;;;;10.50;99.90;;;;;;5010973;28;20376;-77
2022/06/22 09:21:00;;;;;;;;;;;10.50;99.90;;;;;;5011905;28;19916;-71
2022/06/22 09:23:41;;;;;;;;;;;10.40;99.90;;;;;;5010978;28;19909;-78
2022/06/22 09:26:16;;;;;;;;;;;10.40;99.90;;;;;;5010326;28;19971;-71
2022/06/22 09:28:49;;;;;;;;;;;10.40;99.90;;;;;;5011864;28;19909;-78
2022/06/22 09:31:30;;;;;;;;;;;10.30;99.90;;;;;;5011311;28;19906;-72
2022/06/22 09:33:59;;;;;;;;;;;10.40;99.90;;;;;;5011587;28;20355;-76
2022/06/22 09:36:38;;;;;;;;;;;10.40;99.90;;;;;;5011687;28;20382;-76
2022/06/22 09:39:11;;;;;;;;;;;10.40;99.90;;;;;;5010019;28;19963;-70
2022/06/22 09:41:44;;;;;;;;;;;10.40;99.90;;;;;;5009421;28;19928;-75
2022/06/22 09:44:30;;;;;;;;;;;10.30;99.90;;;;;;5012234;28;19912;-71
2022/06/22 09:47:06;;;;;;;;;;;10.40;99.90;;;;;;5010561;28;20004;-77
2022/06/22 09:49:52;;;;;;;;;;;10.30;99.90;;;;;;5011791;28;19911;-70
2022/06/22 09:52:19;;;;;;;;;;;10.30;99.90;;;;;;5010123;28;20000;-70
2022/06/22 09:58:01;;;;;;;;;;;10.40;99.90;;;;;;5010620;28;19913;-76
2022/06/22 10:00:29;;;;;;;;;;;10.40;99.90;;;;;;5011164;28;20325;-77
2022/06/22 10:02:58;;;;;;;;;;;10.40;99.90;;;;;;5011405;28;20287;-72
2022/06/22 10:05:43;;;;;;;;;;;10.30;99.90;;;;;;5014462;28;19910;-71
2022/06/22 10:08:13;;;;;;;;;;;10.30;99.90;;;;;;5014142;28;20346;-76
2022/06/22 10:10:42;;;;;;;;;;;10.20;99.90;;;;;;5013858;28;19909;-72
2022/06/22 10:13:09;;;;;;;;;;;10.20;99.90;;;;;;5013247;28;20329;-71
2022/06/22 10:15:47;;;;;;;;;;;10.10;99.90;;;;;;5014727;28;19913;-73
2022/06/22 10:18:26;;;;;;;;;;;10.10;99.90;;;;;;5014970;28;19906;-77
2022/06/22 10:20:56;;;;;;;;;;;10.10;99.90;;;;;;5013917;28;20008;-77
2022/06/22 10:23:28;;;;;;;;;;;10.10;99.90;;;;;;5012138;28;19905;-75
2022/06/22 10:26:18;;;;;;;;;;;10.00;99.90;;;;;;5014084;28;20370;-71
2022/06/22 10:28:56;;;;;;;;;;;10.00;99.90;;;;;;5013819;28;19912;-70
2022/06/22 10:31:30;;;;;;;;;;;10.00;99.90;;;;;;5014667;28;19912;-77
2022/06/22 10:34:12;;;;;;;;;;;10.00;99.90;;;;;;5013549;28;20270;-77
2022/06/22 10:37:02;;;;;;;;;;;10.00;99.90;;;;;;5014959;28;19913;-70
2022/06/22 10:39:39;;;;;;;;;;;10.00;99.90;;;;;;4984724;28;20428;-74
2022/06/22 10:45:20;;;;;;;;;;;10.00;99.90;;;;;;5014199;28;19920;-74
2022/06/22 10:47:47;;;;;;;;;;;10.00;99.90;;;;;;5012965;28;19944;-71
2022/06/22 10:50:31;;;;;;;;;;;10.00;99.90;;;;;;5014155;28;19936;-72
2022/06/22 10:53:01;;;;;;;;;;;10.00;99.90;;;;;;5012531;28;19905;-72
2022/06/22 10:55:39;;;;;;;;;;;10.00;99.90;;;;;;5011774;28;19912;-71
2022/06/22 10:58:29;;;;;;;;;;;10.00;99.90;;;;;;5013077;28;19906;-77
2022/06/22 11:01:14;;;;;;;;;;;10.00;99.90;;;;;;5012103;28;19952;-77
2022/06/22 11:03:40;;;;;;;;;;;9.90;99.90;;;;;;5012632;28;19905;-78
2022/06/22 11:06:10;;;;;;;;;;;9.90;99.90;;;;;;5013962;28;19952;-78
2022/06/22 11:08:55;;;;;;;;;;;9.90;99.90;;;;;;5013909;28;19919;-71
2022/06/22 11:11:45;;;;;;;;;;;9.90;99.90;;;;;;5013782;28;19932;-78
2022/06/22 11:14:15;;;;;;;;;;;9.90;99.90;;;;;;5011740;28;19992;-78
2022/06/22 11:16:56;;;;;;;;;;;9.90;99.90;;;;;;5012195;28;20277;-78
2022/06/22 11:19:26;;;;;;;;;;;9.90;99.90;;;;;;5011139;28;19914;-78
2022/06/22 11:21:53;;;;;;;;;;;9.90;99.90;;;;;;5013248;28;19912;-72
2022/06/22 11:24:39;;;;;;;;;;;9.90;99.90;;;;;;5013005;28;19906;-71
2022/06/22 11:32:59;;;;;;;;;;;9.90;99.90;;;;;;5011380;28;20393;-72
2022/06/22 11:35:44;;;;;;;;;;;9.90;99.90;;;;;;5010623;28;20009;-71
2022/06/22 11:38:14;;;;;;;;;;;9.80;99.90;;;;;;5011495;28;19960;-72
2022/06/22 11:40:46;;;;;;;;;;;9.80;99.90;;;;;;5012832;28;19913;-78
2022/06/22 11:43:28;;;;;;;;;;;9.80;99.90;;;;;;5012974;28;19912;-79
2022/06/22 11:46:13;;;;;;;;;;;9.80;99.90;;;;;;5013300;28;20074;-77
2022/06/22 11:48:46;;;;;;;;;;;9.80;99.90;;;;;;5011996;28;19910;-71
2022/06/22 11:51:12;;;;;;;;;;;9.80;99.90;;;;;;5001983;28;19925;-78
2022/06/22 11:53:48;;;;;;;;;;;9.80;99.90;;;;;;5006767;28;20274;-72
2022/06/22 11:56:24;;;;;;;;;;;9.80;99.90;;;;;;4999227;28;20461;-77
2022/06/22 11:58:53;;;;;;;;;;;9.80;99.90;;;;;;5004123;28;19917;-71
2022/06/22 12:01:20;;;;;;;;;;;9.80;99.90;;;;;;5003519;28;20279;-72
2022/06/22 12:03:57;;;;;;;;;;;9.80;99.90;;;;;;5005416;28;19905;-74
2022/06/22 12:06:30;;;;;;;;;;;9.80;99.90;;;;;;5005207;28;19917;-77
2022/06/22 12:09:12;;;;;;;;;;;9.70;99.90;;;;;;5005159;28;19960;-72
2022/06/22 12:11:58;;;;;;;;;;;9.70;99.90;;;;;;5005368;28;20359;-76
2022/06/22 12:17:32;;;;;;;;;;;9.70;99.90;;;;;;5004811;28;19928;-78
2022/06/22 12:20:07;;;;;;;;;;;9.60;99.90;;;;;;5004626;28;19914;-74
2022/06/22 12:22:34;;;;;;;;;;;9.60;99.90;;;;;;5004627;28;19910;-74
2022/06/22 12:25:13;;;;;;;;;;;9.60;99.90;;;;;;5002463;28;19996;-71
2022/06/22 12:27:41;;;;;;;;;;;9.60;99.90;;;;;;5003376;28;20287;-73
2022/06/22 12:30:11;;;;;;;;;;;9.60;99.90;;;;;;5004471;28;20269;-79
2022/06/22 12:32:40;;;;;;;;;;;9.50;99.90;;;;;;5013186;28;19988;-80
2022/06/22 12:35:16;;;;;;;;;;;9.50;99.90;;;;;;5014347;28;19909;-79
2022/06/22 12:37:47;;;;;;;;;;;9.50;99.90;;;;;;5014497;28;19906;-72
2022/06/22 12:40:25;;;;;;;;;;;9.50;99.90;;;;;;5014053;28;19935;-80
2022/06/22 12:42:55;;;;;;;;;;;9.50;99.90;;;;;;5014212;28;19906;-80
2022/06/22 12:45:21;;;;;;;;;;;9.50;99.90;;;;;;5014810;28;19913;-79
2022/06/22 12:48:23;;;;;;;;;;;9.40;99.90;;;;;;5014399;28;20305;-72
2022/06/22 12:51:00;;;;;;;;;;;9.40;99.90;;;;;;4992695;28;19905;-80
2022/06/22 12:53:49;;;;;;;;;;;9.40;99.90;;;;;;5011279;28;19905;-72
2022/06/22 12:56:44;;;;;;;;;;;9.40;99.90;;;;;;5014146;28;19909;-72
2022/06/22 12:59:19;;;;;;;;;;;9.40;99.90;;;;;;5009248;28;19913;-72
2022/06/22 13:01:46;;;;;;;;;;;9.30;99.90;;;;;;5014110;28;19913;-72
2022/06/22 13:04:13;;;;;;;;;;;9.30;99.90;;;;;;5013898;28;19906;-79
2022/06/22 13:06:44;;;;;;;;;;;9.30;99.90;;;;;;5013821;28;19918;-72
2022/06/22 13:09:12;;;;;;;;;;;9.20;99.90;;;;;;5014183;28;19906;-70
2022/06/22 13:11:38;;;;;;;;;;;9.20;99.90;;;;;;5013949;28;19910;-77
2022/06/22 13:14:05;;;;;;;;;;;9.20;99.90;;;;;;5013025;28;19909;-77
2022/06/22 13:16:35;;;;;;;;;;;9.20;99.90;;;;;;5013926;28;19905;-78
2022/06/22 13:19:15;;;;;;;;;;;9.30;99.90;;;;;;5013800;28;19909;-76
2022/06/22 13:21:45;;;;;;;;;;;9.20;99.90;;;;;;5013894;28;19906;-77
2022/06/22 13:24:11;;;;;;;;;;;9.20;99.90;;;;;;5013907;28;19912;-77
2022/06/22 13:26:56;;;;;;;;;;;9.20;99.90;;;;;;5014139;28;19913;-71
2022/06/22 13:29:35;;;;;;;;;;;9.20;99.90;;;;;;5014284;28;19906;-74
2022/06/22 13:32:04;;;;;;;;;;;9.10;99.90;;;;;;5013834;28;19906;-78
2022/06/22 13:34:37;;;;;;;;;;;9.20;99.90;;;;;;5013754;28;19949;-78
2022/06/22 13:37:10;;;;;;;;;;;9.10;99.90;;;;;;5014665;28;20381;-75
2022/06/22 13:39:45;;;;;;;;;;;9.10;99.90;;;;;;5017630;28;19929;-78
2022/06/22 13:42:30;;;;;;;;;;;9.10;99.90;;;;;;5017293;28;20032;-77
2022/06/22 13:45:22;;;;;;;;;;;9.00;99.90;;;;;;5017510;28;20382;-71
2022/06/22 13:47:57;;;;;;;;;;;9.00;99.90;;;;;;5017646;28;19909;-78
2022/06/22 13:50:34;;;;;;;;;;;9.00;99.90;;;;;;5015836;28;19905;-78
2022/06/22 13:53:27;;;;;;;;;;;8.90;99.90;;;;;;5017239;28;19906;-78
2022/06/22 13:55:59;;;;;;;;;;;8.90;99.90;;;;;;5016650;28;20285;-78
2022/06/22 13:58:29;;;;;;;;;;;8.80;99.90;;;;;;5017160;28;19916;-71
2022/06/22 14:01:04;;;;;;;;;;;8.80;99.90;;;;;;5016986;28;20012;-75
2022/06/22 14:03:45;;;;;;;;;;;8.80;99.90;;;;;;5017149;28;19905;-78
2022/06/22 14:06:18;;;;;;;;;;;8.80;99.90;;;;;;5016917;28;19956;-76
2022/06/22 14:08:47;;;;;;;;;;;8.80;99.90;;;;;;5016975;28;20310;-78
2022/06/22 14:11:23;;;;;;;;;;;8.70;99.90;;;;;;5017267;28;19941;-78
2022/06/22 14:14:25;;;;;;;;;;;8.70;99.90;;;;;;5016999;28;19906;-75
2022/06/22 14:16:55;;;;;;;;;;;8.70;99.90;;;;;;4956351;29;19945;-78
2022/06/22 14:19:29;;;;;;;;;;;8.70;99.90;;;;;;5005944;28;19909;-78
2022/06/22 14:22:00;;;;;;;;;;;8.70;99.90;;;;;;5017038;28;19963;-71
2022/06/22 14:24:32;;;;;;;;;;;8.70;99.90;;;;;;5016827;28;19910;-71
2022/06/22 14:27:17;;;;;;;;;;;8.70;99.90;;;;;;5016845;28;19906;-78
2022/06/22 14:30:02;;;;;;;;;;;8.70;99.90;;;;;;5016980;28;19992;-78
2022/06/22 14:32:29;;;;;;;;;;;8.70;99.90;;;;;;5016443;28;20277;-77
2022/06/22 14:35:05;;;;;;;;;;;8.70;99.90;;;;;;5016728;28;19997;-71
2022/06/22 14:37:36;;;;;;;;;;;8.60;99.90;;;;;;5016404;28;20262;-77
2022/06/22 14:40:07;;;;;;;;;;;8.70;99.90;;;;;;5016609;28;20278;-73
2022/06/22 14:42:36;;;;;;;;;;;8.70;99.90;;;;;;5016552;28;20371;-70
2022/06/22 14:45:06;;;;;;;;;;;8.70;99.90;;;;;;5016420;28;20405;-71
2022/06/22 14:47:39;;;;;;;;;;;8.70;99.90;;;;;;5016495;28;19952;-78
2022/06/22 14:50:16;;;;;;;;;;;8.70;99.90;;;;;;5015311;28;19909;-71
2022/06/22 14:52:53;;;;;;;;;;;8.70;99.90;;;;;;5016088;28;19928;-79
2022/06/22 14:55:20;;;;;;;;;;;8.70;99.90;;;;;;5015977;28;19913;-78
2022/06/22 14:57:49;;;;;;;;;;;8.70;99.90;;;;;;5016139;28;20286;-78
2022/06/22 15:00:19;;;;;;;;;;;8.70;99.90;;;;;;5016088;28;19971;-79
2022/06/22 15:03:04;;;;;;;;;;;8.70;99.90;;;;;;5015831;28;19959;-74
2022/06/22 15:05:32;;;;;;;;;;;8.70;99.90;;;;;;5015991;28;19909;-77
2022/06/22 15:08:09;;;;;;;;;;;8.70;99.90;;;;;;5015912;28;19913;-71
2022/06/22 15:10:41;;;;;;;;;;;8.70;99.90;;;;;;5015858;28;19921;-77
2022/06/22 15:13:13;;;;;;;;;;;8.70;99.90;;;;;;5014358;28;20370;-78
2022/06/22 15:15:43;;;;;;;;;;;8.70;99.90;;;;;;5011414;28;19909;-72
2022/06/22 15:18:31;;;;;;;;;;;8.60;99.90;;;;;;5005172;28;19906;-80
2022/06/22 15:21:16;;;;;;;;;;;8.60;99.90;;;;;;4998406;28;20024;-80